Time;durP1;ratioP1;P1;durP2;ratioP2;P2;SDS_P1;SDS_P2;PMS_P1;PMS_P2;Temp;Humidity;BMP_temperature;BMP_pressure;BME280_temperature;BME280_humidity;BME280_pressure;Samples;Min_cycle;Max_cycle;Signal;HPM_P1;HPM_P2
2022/09/27 00:02:28;;;;;;;3.27;3.17;;;10.70;99.90;11.00;99727.00;;;;5034608;28;20269;-71
2022/09/27 00:05:00;;;;;;;3.77;3.67;;;10.80;99.90;11.10;99699.00;;;;5051246;28;20181;-72
2022/09/27 00:07:35;;;;;;;3.80;3.70;;;10.90;99.90;11.60;99751.00;;;;5051117;28;20570;-72
2022/09/27 00:10:09;;;;;;;4.53;4.43;;;11.10;99.90;11.70;99743.00;;;;5050801;28;20232;-71
2022/09/27 00:12:44;;;;;;;4.13;3.97;;;11.20;99.90;10.90;99734.00;;;;5050977;28;20727;-71
2022/09/27 00:15:16;;;;;;;3.70;3.60;;;11.00;99.90;11.40;99748.00;;;;5050994;28;20178;-71
2022/09/27 00:17:45;;;;;;;4.10;4.00;;;11.00;99.90;11.80;99762.00;;;;5035324;28;20189;-71
2022/09/27 00:20:26;;;;;;;4.70;4.60;;;11.20;99.90;11.90;99763.00;;;;5034114;28;20190;-71
2022/09/27 00:22:57;;;;;;;4.97;4.87;;;11.40;99.90;12.10;99761.00;;;;5050818;28;20178;-71
2022/09/27 00:25:31;;;;;;;5.43;5.33;;;11.50;99.90;12.10;99743.00;;;;5033659;28;20181;-71
2022/09/27 00:28:01;;;;;;;6.20;6.00;;;11.50;99.90;12.30;99762.00;;;;5050420;28;20220;-71
2022/09/27 00:30:36;;;;;;;6.30;6.10;;;11.70;99.90;12.00;99765.00;;;;5050732;28;20212;-70
2022/09/27 00:33:04;;;;;;;5.97;5.77;;;11.60;99.90;12.30;99778.00;;;;5035211;28;20585;-70
2022/09/27 00:35:36;;;;;;;6.70;6.50;;;11.70;99.90;12.10;99770.00;;;;5050952;28;20643;-70
2022/09/27 00:38:05;;;;;;;6.60;6.40;;;11.70;99.90;12.30;99772.00;;;;5034820;28;20183;-70
2022/09/27 00:40:57;;;;;;;6.87;6.67;;;11.70;99.90;12.20;99769.00;;;;5034966;28;20233;-71
2022/09/27 00:43:55;;;;;;;7.73;7.53;;;11.80;99.90;12.40;99773.00;;;;5033741;28;20286;-70
2022/09/27 00:46:46;;;;;;;7.63;7.43;;;11.80;99.90;12.00;99765.00;;;;5049997;28;20233;-71
2022/09/27 00:49:49;;;;;;;8.00;7.80;;;11.70;99.90;12.30;99738.00;;;;5033708;28;20247;-73
2022/09/27 00:52:40;;;;;;;7.93;7.73;;;11.70;99.90;12.40;99739.00;;;;5049712;28;20190;-73
2022/09/27 00:55:51;;;;;;;7.60;7.40;;;11.80;99.90;12.20;99782.00;;;;5049081;28;20187;-74
2022/09/27 00:59:01;;;;;;;8.30;8.10;;;11.70;99.90;12.40;99773.00;;;;5049917;28;20180;-73
2022/09/27 01:02:16;;;;;;;7.80;7.60;;;11.80;99.90;12.10;99775.00;;;;5033528;28;20196;-74
2022/09/27 01:05:02;;;;;;;7.50;7.30;;;11.70;99.90;12.00;99768.00;;;;5033461;28;20272;-74
2022/09/27 01:08:01;;;;;;;8.50;8.20;;;11.60;99.90;12.30;99777.00;;;;5049881;28;20180;-75
2022/09/27 01:11:01;;;;;;;7.20;7.00;;;11.60;99.90;11.80;99765.00;;;;5049482;28;20181;-73
2022/09/27 01:13:44;;;;;;;6.60;6.40;;;11.50;99.90;11.70;99770.00;;;;5034241;28;20289;-73
2022/09/27 01:16:42;;;;;;;6.87;6.67;;;11.30;99.90;11.40;99780.00;;;;5033175;28;20771;-73
2022/09/27 01:19:59;;;;;;;7.30;7.10;;;11.20;99.90;11.30;99790.00;;;;5034257;28;20185;-72
2022/09/27 01:22:55;;;;;;;9.67;9.27;;;11.10;99.90;11.70;99789.00;;;;5034066;28;20174;-72
2022/09/27 01:25:49;;;;;;;7.50;7.30;;;11.20;99.90;11.70;99768.00;;;;5049651;28;20171;-71
2022/09/27 01:29:02;;;;;;;7.77;7.57;;;11.20;99.90;11.60;99788.00;;;;5034572;28;20686;-72
2022/09/27 01:31:58;;;;;;;7.80;7.60;;;11.10;99.90;11.30;99789.00;;;;5033775;28;20239;-73
2022/09/27 01:35:10;;;;;;;9.70;8.90;;;11.00;99.90;11.00;99786.00;;;;5034247;28;20167;-73
2022/09/27 01:38:45;;;;;;;7.37;7.17;;;10.90;99.90;11.10;99790.00;;;;5032152;28;20183;-73
2022/09/27 01:41:37;;;;;;;7.20;7.00;;;10.70;99.90;10.70;99789.00;;;;5034083;28;20634;-73
2022/09/27 01:44:49;;;;;;;7.70;7.50;;;10.60;99.90;11.00;99796.00;;;;5049410;28;20208;-73
2022/09/27 01:47:45;;;;;;;8.30;8.10;;;10.60;99.90;10.90;99788.00;;;;5031757;28;20669;-75
2022/09/27 01:50:42;;;;;;;8.93;8.63;;;10.60;99.90;11.10;99763.00;;;;5030748;28;20539;-74
2022/09/27 01:54:09;;;;;;;9.17;8.87;;;10.70;99.90;11.20;99806.00;;;;5014773;28;20202;-74
2022/09/27 01:57:05;;;;;;;10.60;10.23;;;10.60;99.90;11.30;99804.00;;;;5023592;28;20228;-71
2022/09/27 01:59:58;;;;;;;8.10;7.90;;;10.80;99.90;10.90;99795.00;;;;5032199;28;20643;-71
2022/09/27 02:03:10;;;;;;;9.00;8.70;;;10.50;99.90;11.10;99778.00;;;;5048934;28;20187;-71
2022/09/27 02:06:16;;;;;;;9.77;9.47;;;10.60;99.90;11.00;99778.00;;;;5031957;28;20199;-71
2022/09/27 02:09:13;;;;;;;10.23;9.93;;;10.70;99.90;11.20;99777.00;;;;5032796;28;20222;-71
2022/09/27 02:12:29;;;;;;;10.33;10.03;;;10.60;99.90;11.10;99789.00;;;;5048391;28;20261;-70
2022/09/27 02:15:26;;;;;;;10.60;10.30;;;10.60;99.90;11.40;99785.00;;;;5031925;28;20704;-71
2022/09/27 02:18:18;;;;;;;9.80;9.50;;;10.70;99.90;11.60;99749.00;;;;5048645;28;20226;-70
2022/09/27 02:21:09;;;;;;;10.70;10.40;;;10.90;99.90;11.90;99759.00;;;;5048115;28;20181;-71
2022/09/27 02:23:58;;;;;;;9.50;9.20;;;11.00;99.90;11.80;99769.00;;;;5048580;28;20235;-71
2022/09/27 02:26:45;;;;;;;9.40;9.10;;;11.00;99.90;11.60;99783.00;;;;5048569;28;20624;-71
2022/09/27 02:30:00;;;;;;;9.90;9.60;;;11.00;99.90;10.90;99789.00;;;;5032403;28;20188;-71
2022/09/27 02:32:53;;;;;;;9.20;8.90;;;10.80;99.90;11.50;99795.00;;;;5032064;28;20226;-71
2022/09/27 02:35:48;;;;;;;9.50;9.20;;;10.80;99.90;11.30;99780.00;;;;5032167;28;20187;-71
2022/09/27 02:38:40;;;;;;;10.13;9.83;;;10.80;99.90;11.50;99784.00;;;;5028296;28;20667;-71
2022/09/27 02:41:57;;;;;;;8.30;8.10;;;10.80;99.90;10.80;99796.00;;;;5013141;28;20203;-71
2022/09/27 02:44:51;;;;;;;6.20;6.00;;;10.70;99.90;10.20;99797.00;;;;5013808;28;20202;-71
2022/09/27 02:48:06;;;;;;;5.03;4.93;;;10.30;99.90;9.90;99794.00;;;;5029666;28;20198;-71
2022/09/27 02:51:01;;;;;;;5.20;5.10;;;10.00;99.90;9.90;99792.00;;;;5048292;28;20183;-71
2022/09/27 02:53:59;;;;;;;4.90;4.80;;;9.90;99.90;10.40;99800.00;;;;5031703;28;20209;-71
2022/09/27 02:57:04;;;;;;;3.60;3.50;;;10.00;99.90;9.90;99793.00;;;;5031722;28;20245;-72
2022/09/27 03:00:09;;;;;;;3.37;3.27;;;9.90;99.90;9.80;99795.00;;;;5032864;28;20185;-72
2022/09/27 03:03:18;;;;;;;3.50;3.40;;;9.80;99.90;10.40;99776.00;;;;5027567;28;20216;-72
2022/09/27 03:06:11;;;;;;;4.00;3.90;;;9.90;99.90;10.40;99779.00;;;;5033147;28;20181;-72
2022/09/27 03:08:46;;;;;;;4.30;4.20;;;10.10;99.90;10.40;99779.00;;;;5031748;28;20285;-71
2022/09/27 03:11:26;;;;;;;4.20;3.90;;;10.00;99.90;10.00;99779.00;;;;5031832;28;20182;-71
2022/09/27 03:14:18;;;;;;;2.90;2.80;;;10.00;99.90;9.80;99788.00;;;;5032936;28;20180;-71
2022/09/27 03:16:57;;;;;;;2.60;2.50;;;9.80;99.90;9.70;99775.00;;;;5031910;28;20589;-71
2022/09/27 03:19:29;;;;;;;3.00;2.90;;;9.70;99.90;10.00;99779.00;;;;5033710;28;20169;-70
2022/09/27 03:22:18;;;;;;;3.63;3.53;;;9.80;99.90;10.20;99770.00;;;;5035236;28;20659;-71
2022/09/27 03:24:50;;;;;;;3.90;3.80;;;9.80;99.90;10.20;99756.00;;;;5035543;28;20248;-70
2022/09/27 03:27:23;;;;;;;4.37;4.27;;;9.90;99.90;10.30;99751.00;;;;5035549;28;20215;-70
2022/09/27 03:29:58;;;;;;;4.10;4.00;;;9.90;99.90;10.30;99764.00;;;;5035264;28;20273;-70
2022/09/27 03:32:43;;;;;;;4.27;4.17;;;9.90;99.90;10.20;99758.00;;;;5034775;28;20675;-70
2022/09/27 03:35:21;;;;;;;4.33;4.23;;;9.90;99.90;11.00;99754.00;;;;5035068;28;20208;-70
2022/09/27 03:37:55;;;;;;;4.20;4.10;;;10.20;99.90;10.50;99716.00;;;;5035364;28;20171;-70
2022/09/27 03:40:42;;;;;;;4.40;4.30;;;10.10;99.90;10.50;99713.00;;;;5034794;28;20277;-70
2022/09/27 03:43:37;;;;;;;6.80;6.60;;;10.10;99.90;10.50;99766.00;;;;5034989;28;20774;-72
2022/09/27 03:46:29;;;;;;;8.17;7.87;;;10.10;99.90;11.00;99744.00;;;;5035020;28;20178;-71
2022/09/27 03:49:26;;;;;;;6.77;6.57;;;10.30;99.90;10.70;99715.00;;;;5033017;28;20210;-71
2022/09/27 03:52:18;;;;;;;6.90;6.70;;;10.20;99.90;10.90;99768.00;;;;5034666;28;20205;-71
2022/09/27 03:54:58;;;;;;;7.33;7.13;;;10.20;99.90;10.40;99764.00;;;;5034804;28;20182;-72
2022/09/27 03:57:38;;;;;;;6.97;6.77;;;10.10;99.90;10.40;99776.00;;;;5034744;28;20213;-71
2022/09/27 04:00:20;;;;;;;6.87;6.67;;;10.10;99.90;10.70;99770.00;;;;5034359;28;20269;-72
2022/09/27 04:02:49;;;;;;;6.37;6.17;;;10.20;99.90;10.60;99734.00;;;;5034354;28;20244;-72
2022/09/27 04:05:23;;;;;;;5.97;5.77;;;10.20;99.90;11.30;99783.00;;;;5034545;28;20203;-72
2022/09/27 04:07:49;;;;;;;6.97;6.77;;;10.50;99.90;11.60;99785.00;;;;5034886;28;20542;-72
2022/09/27 04:10:19;;;;;;;7.03;6.83;;;10.70;99.90;11.50;99786.00;;;;5035588;28;20177;-72
2022/09/27 04:12:45;;;;;;;7.07;6.87;;;10.80;99.90;11.40;99784.00;;;;5034212;28;20570;-71
2022/09/27 04:15:14;;;;;;;7.40;7.20;;;10.80;99.90;11.70;99772.00;;;;5035398;28;20183;-71
2022/09/27 04:17:46;;;;;;;6.90;6.70;;;10.90;99.90;11.00;99779.00;;;;5034452;28;20183;-72
2022/09/27 04:20:12;;;;;;;8.13;7.93;;;10.70;99.90;11.00;99776.00;;;;5034235;28;20539;-72
2022/09/27 04:22:44;;;;;;;7.60;7.40;;;10.50;99.90;10.90;99770.00;;;;5034503;28;20181;-72
2022/09/27 04:25:11;;;;;;;8.13;7.93;;;10.50;99.90;10.80;99765.00;;;;5034210;28;20184;-71
2022/09/27 04:27:42;;;;;;;8.47;8.23;;;10.40;99.90;10.80;99777.00;;;;5034206;28;20177;-71
2022/09/27 04:30:09;;;;;;;12.77;11.80;;;10.30;99.90;11.10;99781.00;;;;5033551;28;20207;-70
2022/09/27 04:32:44;;;;;;;7.50;7.30;;;10.50;99.90;10.80;99786.00;;;;5034016;28;20240;-71
2022/09/27 04:38:02;;;;;;;7.70;7.50;;;10.40;99.90;11.00;99773.00;;;;5035080;28;20281;-71
2022/09/27 04:40:28;;;;;;;7.63;7.43;;;10.40;99.90;10.40;99754.00;;;;5034150;28;20179;-71
2022/09/27 04:42:58;;;;;;;7.40;7.20;;;10.30;99.90;10.40;99751.00;;;;5034078;28;20182;-73
2022/09/27 04:45:24;;;;;;;7.57;7.37;;;10.20;99.90;11.00;99738.00;;;;5033600;28;20181;-72
2022/09/27 04:47:50;;;;;;;7.57;7.37;;;10.30;99.90;10.60;99758.00;;;;5034082;28;20646;-74
2022/09/27 04:50:21;;;;;;;7.60;7.40;;;10.30;99.90;10.60;99760.00;;;;5033465;28;20205;-74
2022/09/27 04:52:52;;;;;;;7.60;7.40;;;10.20;99.90;11.00;99760.00;;;;5033821;28;20230;-73
2022/09/27 04:55:22;;;;;;;9.07;8.77;;;10.30;99.90;11.10;99759.00;;;;5033663;28;20534;-74
2022/09/27 04:57:53;;;;;;;7.10;6.90;;;10.40;99.90;11.00;99746.00;;;;5033606;28;20172;-72
2022/09/27 05:00:22;;;;;;;6.67;6.47;;;10.40;99.90;11.00;99738.00;;;;5049772;28;20708;-72
2022/09/27 05:02:51;;;;;;;8.17;7.97;;;10.60;99.90;11.20;99750.00;;;;5033132;28;20229;-71
2022/09/27 05:05:17;;;;;;;7.17;6.97;;;10.50;99.90;10.80;99706.00;;;;5033686;28;20181;-71
2022/09/27 05:07:48;;;;;;;7.00;6.80;;;10.40;99.90;10.60;99770.00;;;;5033522;28;20531;-71
2022/09/27 05:10:17;;;;;;;5.53;5.40;;;10.30;99.90;11.20;99761.00;;;;5034436;28;20181;-70
2022/09/27 05:12:43;;;;;;;6.07;5.87;;;10.50;99.90;10.30;99755.00;;;;5049662;28;20215;-71
2022/09/27 05:15:09;;;;;;;5.30;5.20;;;10.20;99.90;10.60;99760.00;;;;5032940;28;20184;-71
2022/09/27 05:17:38;;;;;;;4.73;4.63;;;10.30;99.90;10.40;99761.00;;;;5033089;28;20251;-70
2022/09/27 05:20:04;;;;;;;5.47;5.33;;;10.20;99.90;10.30;99762.00;;;;5033287;28;20235;-70
2022/09/27 05:22:33;;;;;;;5.00;4.90;;;10.10;99.90;10.20;99740.00;;;;5033359;28;20184;-70
2022/09/27 05:25:02;;;;;;;5.23;5.13;;;10.10;99.90;10.30;99741.00;;;;5034355;28;20191;-70
2022/09/27 05:27:29;;;;;;;5.40;5.30;;;10.10;99.90;10.30;99753.00;;;;5032771;28;20185;-71
2022/09/27 05:30:00;;;;;;;5.50;5.33;;;10.00;99.90;10.40;99706.00;;;;5032638;28;20268;-70
2022/09/27 05:32:29;;;;;;;5.50;5.37;;;10.00;99.90;10.20;99747.00;;;;5033756;28;20220;-70
2022/09/27 05:34:58;;;;;;;4.60;4.50;;;10.00;99.90;10.20;99704.00;;;;5033946;28;20189;-71
2022/09/27 05:37:30;;;;;;;5.20;5.10;;;10.00;99.90;10.60;99758.00;;;;5033931;28;20184;-71
2022/09/27 05:40:02;;;;;;;5.20;5.10;;;10.10;99.90;10.30;99732.00;;;;5039703;28;20221;-72
2022/09/27 05:42:31;;;;;;;5.10;5.00;;;10.10;99.90;10.10;99748.00;;;;5011993;28;20216;-71
2022/09/27 05:45:02;;;;;;;5.40;5.30;;;10.00;99.90;10.20;99752.00;;;;5013388;28;20179;-71
2022/09/27 05:47:30;;;;;;;6.23;6.03;;;9.90;99.90;10.50;99753.00;;;;5012742;28;20156;-71
2022/09/27 05:49:59;;;;;;;6.17;5.97;;;10.00;99.90;10.30;99751.00;;;;5012887;28;20272;-72
2022/09/27 05:52:30;;;;;;;6.20;6.00;;;10.10;99.90;10.40;99748.00;;;;5012649;28;20200;-72
2022/09/27 05:55:14;;;;;;;5.90;5.70;;;10.10;99.90;10.10;99755.00;;;;5013980;28;20556;-72
2022/09/27 05:57:53;;;;;;;6.10;5.90;;;9.90;99.90;10.30;99750.00;;;;5012432;28;20185;-71
2022/09/27 06:00:19;;;;;;;5.53;5.37;;;10.00;99.90;10.30;99753.00;;;;5045718;28;20713;-71
2022/09/27 06:03:00;;;;;;;5.83;5.63;;;10.10;99.90;10.40;99757.00;;;;5012468;28;20187;-72
2022/09/27 06:05:32;;;;;;;6.50;6.30;;;10.00;99.90;10.10;99753.00;;;;5012501;28;20290;-71
2022/09/27 06:08:06;;;;;;;6.30;6.10;;;9.90;99.90;10.00;99747.00;;;;5013113;28;20644;-71
2022/09/27 06:10:37;;;;;;;6.00;5.80;;;9.80;99.90;9.90;99747.00;;;;5045748;28;20171;-71
2022/09/27 06:13:07;;;;;;;5.70;5.50;;;9.80;99.90;10.30;99736.00;;;;5028522;28;20215;-71
2022/09/27 06:15:44;;;;;;;5.27;5.17;;;9.80;99.90;9.90;99745.00;;;;5012452;28;20208;-71
2022/09/27 06:18:19;;;;;;;6.13;5.93;;;9.80;99.90;10.30;99734.00;;;;5045391;28;20179;-71
2022/09/27 06:20:51;;;;;;;4.30;4.20;;;9.90;99.90;9.70;99755.00;;;;5012646;28;20176;-71
2022/09/27 06:23:21;;;;;;;4.50;4.40;;;9.70;99.90;9.80;99750.00;;;;5013676;28;20197;-71
2022/09/27 06:25:48;;;;;;;4.53;4.43;;;9.70;99.90;10.60;99752.00;;;;5045241;28;20177;-70
2022/09/27 06:28:16;;;;;;;5.40;5.30;;;9.90;99.90;10.40;99742.00;;;;5012140;28;20697;-71
2022/09/27 06:30:45;;;;;;;5.27;5.17;;;10.10;99.90;10.50;99744.00;;;;5029294;28;20274;-71
2022/09/27 06:33:18;;;;;;;6.63;6.10;;;10.10;99.90;10.00;99751.00;;;;5011999;28;20752;-70
2022/09/27 06:35:48;;;;;;;5.40;4.90;;;10.00;99.90;10.30;99754.00;;;;5012394;28;20181;-70
2022/09/27 06:38:17;;;;;;;4.10;4.00;;;10.10;99.90;9.80;99744.00;;;;5012150;28;20238;-70
2022/09/27 06:40:56;;;;;;;4.13;4.03;;;9.90;99.90;9.80;99761.00;;;;5013141;28;20651;-70
2022/09/27 06:43:23;;;;;;;4.40;4.20;;;9.80;99.90;9.80;99760.00;;;;5013308;28;20180;-70
2022/09/27 06:45:52;;;;;;;4.27;4.07;;;9.70;99.90;9.80;99768.00;;;;5013706;28;20259;-70
2022/09/27 06:48:24;;;;;;;3.70;3.60;;;9.70;99.90;10.20;99771.00;;;;5012220;28;20266;-69
2022/09/27 06:50:59;;;;;;;4.40;4.20;;;9.90;99.90;10.70;99764.00;;;;5013307;28;20188;-70
2022/09/27 06:53:33;;;;;;;4.00;3.90;;;10.10;99.90;10.10;99773.00;;;;5012710;28;20574;-70
2022/09/27 06:56:00;;;;;;;4.80;4.60;;;10.00;99.90;9.80;99777.00;;;;5015704;28;20184;-70
2022/09/27 07:01:29;;;;;;;3.67;3.57;;;9.80;99.90;9.90;99788.00;;;;5016065;28;20665;-71
2022/09/27 07:03:57;;;;;;;4.83;4.60;;;9.80;99.90;9.80;99774.00;;;;5017431;28;20184;-71
2022/09/27 07:06:30;;;;;;;3.70;3.60;;;9.80;99.90;10.00;99782.00;;;;5017118;28;20530;-70
2022/09/27 07:09:02;;;;;;;3.70;3.60;;;9.90;99.90;10.20;99780.00;;;;5015834;28;20644;-70
2022/09/27 07:11:44;;;;;;;3.50;3.40;;;9.90;99.90;10.00;99779.00;;;;5016566;28;20177;-70
2022/09/27 07:14:16;;;;;;;3.80;3.70;;;10.00;99.90;10.20;99786.00;;;;5017004;28;20166;-70
2022/09/27 07:16:42;;;;;;;4.60;4.50;;;10.10;99.90;10.50;99781.00;;;;5015992;28;20188;-71
2022/09/27 07:19:10;;;;;;;5.67;5.40;;;10.20;99.90;10.60;99770.00;;;;5015983;28;20184;-70
2022/09/27 07:21:39;;;;;;;4.20;4.10;;;10.30;99.90;10.90;99788.00;;;;5016727;28;20656;-70
2022/09/27 07:24:07;;;;;;;5.40;5.20;;;10.40;99.90;10.60;99779.00;;;;5015425;28;20347;-70
2022/09/27 07:26:33;;;;;;;4.60;4.50;;;10.50;99.90;10.80;99778.00;;;;5015664;28;20190;-71
2022/09/27 07:29:30;;;;;;;3.20;3.10;;;10.60;99.90;10.20;99797.00;;;;5016513;28;20261;-71
2022/09/27 07:32:44;;;;;;;3.67;3.57;;;10.40;99.90;10.40;99788.00;;;;5047965;28;20327;-72
2022/09/27 07:35:41;;;;;;;3.87;3.77;;;10.40;99.90;10.80;99782.00;;;;5015413;28;20189;-72
2022/09/27 07:38:15;;;;;;;3.80;3.70;;;10.40;99.90;10.70;99800.00;;;;5015429;28;20198;-70
2022/09/27 07:40:41;;;;;;;4.37;4.17;;;10.50;99.90;10.40;99808.00;;;;5015216;28;20174;-70
2022/09/27 07:43:13;;;;;;;4.53;4.43;;;10.40;99.90;10.80;99804.00;;;;5028637;28;20192;-72
2022/09/27 07:46:19;;;;;;;4.97;4.67;;;10.40;99.90;10.40;99801.00;;;;5036175;28;20186;-72
2022/09/27 07:49:10;;;;;;;4.30;4.10;;;10.50;99.90;10.30;99808.00;;;;5035201;28;20683;-71
2022/09/27 07:52:21;;;;;;;3.10;3.00;;;10.30;99.90;9.90;99757.00;;;;5034379;28;20239;-71
2022/09/27 07:55:23;;;;;;;3.90;3.80;;;10.10;99.90;9.80;99761.00;;;;5034745;28;20175;-70
2022/09/27 07:58:29;;;;;;;3.43;3.33;;;10.00;99.90;10.00;99805.00;;;;5034763;28;20183;-72
2022/09/27 08:00:58;;;;;;;3.80;3.70;;;10.10;99.90;10.20;99788.00;;;;5034380;28;20541;-72
2022/09/27 08:04:01;;;;;;;3.20;3.10;;;10.00;99.90;10.30;99802.00;;;;5034758;28;20184;-71
2022/09/27 08:06:51;;;;;;;3.70;3.60;;;10.30;99.90;10.50;99759.00;;;;5034554;28;20183;-72
2022/09/27 08:09:17;;;;;;;4.77;4.37;;;10.30;99.90;10.50;99755.00;;;;5024726;28;20206;-71
2022/09/27 08:11:44;;;;;;;4.43;4.33;;;10.40;99.90;10.60;99803.00;;;;5013573;28;20206;-72
2022/09/27 08:14:23;;;;;;;5.03;4.93;;;10.40;99.90;11.40;99800.00;;;;5020944;28;20192;-76
2022/09/27 08:16:51;;;;;;;4.27;4.17;;;10.80;99.90;10.80;99807.00;;;;5047917;28;20203;-74
2022/09/27 08:19:24;;;;;;;4.30;4.20;;;10.60;99.90;10.60;99757.00;;;;5015815;28;20206;-80
2022/09/27 08:21:55;;;;;;;5.70;5.47;;;10.40;99.90;10.50;99803.00;;;;5049809;28;20194;-80
2022/09/27 08:24:24;;;;;;;4.20;4.10;;;10.40;99.90;10.60;99819.00;;;;5034276;28;20185;-78
2022/09/27 08:26:53;;;;;;;4.20;4.10;;;10.30;99.90;10.50;99820.00;;;;5035307;28;20252;-77
2022/09/27 08:29:48;;;;;;;4.20;4.10;;;10.30;99.90;10.20;99829.00;;;;5035371;28;20659;-75
2022/09/27 08:32:16;;;;;;;4.00;3.90;;;10.30;99.90;9.80;99820.00;;;;5034907;28;20670;-75
2022/09/27 08:34:45;;;;;;;4.30;4.20;;;10.10;99.90;10.80;99821.00;;;;5031944;28;20192;-76
2022/09/27 08:37:11;;;;;;;5.27;5.17;;;10.30;99.90;11.20;99776.00;;;;5017213;28;20203;-81
2022/09/27 08:39:37;;;;;;;4.97;4.87;;;10.70;99.90;10.70;99785.00;;;;5026296;28;20183;-81
2022/09/27 08:42:27;;;;;;;5.27;5.10;;;10.50;99.90;11.20;99784.00;;;;5035260;28;20700;-79
2022/09/27 08:45:38;;;;;;;5.37;5.27;;;10.60;99.90;11.20;99826.00;;;;5033858;28;20227;-76
2022/09/27 08:48:49;;;;;;;4.83;4.73;;;10.80;99.90;10.70;99818.00;;;;5032604;28;20191;-75
2022/09/27 08:51:28;;;;;;;5.67;5.47;;;10.50;99.90;11.30;99827.00;;;;5033489;28;20185;-73
2022/09/27 08:54:20;;;;;;;6.33;6.03;;;10.80;99.90;10.70;99823.00;;;;5034474;28;20280;-73
2022/09/27 09:00:05;;;;;;;4.97;4.77;;;10.80;99.90;11.50;99828.00;;;;5033855;28;20195;-73
2022/09/27 09:02:40;;;;;;;4.00;3.90;;;11.10;99.90;10.70;99808.00;;;;5034058;28;20269;-75
2022/09/27 09:05:35;;;;;;;4.50;4.27;;;10.90;99.90;10.40;99824.00;;;;5034001;28;20189;-76
2022/09/27 09:08:50;;;;;;;3.50;3.40;;;10.60;99.90;10.70;99809.00;;;;5018394;28;20615;-75
2022/09/27 09:15:27;;;;;;;3.00;2.90;;;11.30;99.90;11.90;99821.00;;;;5023643;28;20201;-72
2022/09/27 09:18:22;;;;;;;3.13;3.03;;;11.40;99.90;11.80;99810.00;;;;5013000;28;20201;-73
2022/09/27 09:21:05;;;;;;;2.60;2.50;;;11.80;99.90;11.40;99812.00;;;;5014340;28;20185;-72
2022/09/27 09:24:02;;;;;;;2.27;2.17;;;11.70;99.90;11.60;99807.00;;;;5014401;28;20187;-76
2022/09/27 09:26:52;;;;;;;6.33;3.20;;;11.60;99.90;12.10;99803.00;;;;5014545;28;20187;-76
2022/09/27 09:29:55;;;;;;;3.73;3.53;;;11.90;99.90;12.50;99806.00;;;;5014531;28;20211;-77
2022/09/27 09:32:29;;;;;;;5.80;3.60;;;12.30;99.90;12.10;99753.00;;;;5020309;28;20678;-76
2022/09/27 09:36:00;;;;;;;2.00;1.90;;;12.30;99.90;12.00;99804.00;;;;5033910;28;20241;-77
2022/09/27 09:39:09;;;;;;;2.17;2.07;;;12.20;99.90;12.30;99794.00;;;;4989943;28;20733;-76
2022/09/27 09:41:55;;;;;;;1.87;1.77;;;12.30;99.90;12.30;99795.00;;;;4977325;28;20652;-76
2022/09/27 09:44:48;;;;;;;2.53;2.30;;;12.40;99.90;13.00;99798.00;;;;4992168;28;20191;-76
2022/09/27 09:48:04;;;;;;;2.90;2.80;;;12.70;99.90;13.10;99788.00;;;;4992416;28;20181;-77
2022/09/27 09:51:13;;;;;;;1.20;1.20;;;13.00;99.90;13.10;99787.00;;;;5015233;28;20242;-76
2022/09/27 09:54:20;;;;;;;1.70;1.70;;;12.90;99.90;13.00;99800.00;;;;5031547;28;20212;-76
2022/09/27 09:57:09;;;;;;;2.10;2.00;;;13.10;99.90;13.20;99791.00;;;;5033858;28;20188;-77
2022/09/27 10:00:00;;;;;;;2.30;2.23;;;13.10;99.90;13.80;99788.00;;;;5033659;28;20244;-76
2022/09/27 10:02:50;;;;;;;2.00;2.00;;;13.30;99.90;14.20;99773.00;;;;5048505;28;20666;-76
2022/09/27 10:05:58;;;;;;;4.70;4.50;;;13.70;99.90;14.90;99783.00;;;;5033162;28;20218;-76
2022/09/27 10:08:33;;;;;;;3.80;3.70;;;14.20;99.90;15.20;99795.00;;;;5038441;28;20260;-75
2022/09/27 10:11:22;;;;;;;2.10;2.10;;;14.70;99.90;15.80;99778.00;;;;5015771;28;20277;-76
2022/09/27 10:14:32;;;;;;;2.30;2.30;;;14.90;99.90;16.00;99828.00;;;;5032125;28;20200;-76
2022/09/27 10:17:23;;;;;;;2.83;2.73;;;15.30;99.90;16.70;99832.00;;;;5028146;28;20190;-76
2022/09/27 10:20:21;;;;;;;3.80;3.70;;;15.70;99.90;17.10;99798.00;;;;5031967;28;20189;-77
2022/09/27 10:33:32;;;;;;;0.60;0.60;;;15.60;99.90;16.50;99860.00;;;;5070205;28;20623;-68
2022/09/27 10:36:01;;;;;;;0.60;0.60;;;16.00;99.90;17.40;99868.00;;;;5049772;28;20191;-68
2022/09/27 10:38:36;;;;;;;0.60;0.60;;;16.40;99.90;17.60;99882.00;;;;5049079;28;20189;-68
2022/09/27 10:41:32;;;;;;;0.43;0.43;;;16.70;99.90;16.70;99840.00;;;;5029526;28;20171;-69
2022/09/27 10:44:30;;;;;;;0.20;0.20;;;16.20;99.90;16.90;99887.00;;;;5029458;28;20240;-68
2022/09/27 10:47:21;;;;;;;0.30;0.30;;;16.30;99.90;17.40;99890.00;;;;5029542;28;20280;-69
2022/09/27 10:50:10;;;;;;;0.30;0.30;;;16.60;99.90;18.10;99896.00;;;;5013362;28;20197;-69
2022/09/27 10:52:36;;;;;;;0.30;0.30;;;17.00;99.90;19.00;99887.00;;;;5028995;28;20214;-69
2022/09/27 10:55:27;;;;;;;0.40;0.40;;;17.70;99.90;18.50;99909.00;;;;5012858;28;20258;-69
2022/09/27 10:58:03;;;;;;;2.90;0.63;;;17.90;99.90;18.60;99898.00;;;;5029535;28;20163;-69
2022/09/27 11:00:40;;;;;;;2.43;2.33;;;18.00;99.90;18.80;99900.00;;;;5028862;28;20194;-69
2022/09/27 11:03:15;;;;;;;0.27;0.27;;;17.90;99.90;18.80;99899.00;;;;5029661;28;20182;-68
2022/09/27 11:05:42;;;;;;;0.50;0.50;;;17.90;99.90;17.80;99906.00;;;;5029114;28;20178;-69
2022/09/27 11:08:34;;;;;;;0.70;0.70;;;17.40;99.90;16.00;99926.00;;;;5030164;28;20239;-68
2022/09/27 11:11:12;;;;;;;2.93;0.47;;;16.20;99.90;16.50;99913.00;;;;5026386;28;20196;-68
2022/09/27 11:13:39;;;;;;;0.20;0.20;;;15.90;99.90;16.60;99904.00;;;;5029966;28;20609;-68
2022/09/27 11:16:46;;;;;;;0.20;0.20;;;15.80;99.90;17.50;99903.00;;;;5028839;28;20215;-69
2022/09/27 11:20:04;;;;;;;1.00;0.93;;;16.30;99.90;18.20;99902.00;;;;5028862;28;20593;-69
2022/09/27 11:23:25;;;;;;;4.37;0.50;;;17.00;99.90;17.40;99903.00;;;;5028573;28;20215;-68
2022/09/27 11:26:18;;;;;;;0.67;0.67;;;17.50;99.90;18.00;99913.00;;;;5028427;28;20192;-68
2022/09/27 11:28:44;;;;;;;0.20;0.20;;;17.10;99.90;17.80;99916.00;;;;5029952;28;20177;-69
2022/09/27 11:31:27;;;;;;;0.20;0.20;;;17.00;99.90;16.80;99951.00;;;;5028991;28;20232;-69
2022/09/27 11:34:12;;;;;;;0.20;0.20;;;16.40;99.90;15.30;99956.00;;;;5029623;28;20690;-68
2022/09/27 11:37:21;;;;;;;0.80;0.40;;;15.30;99.90;14.00;99900.00;;;;5028268;28;20175;-69
2022/09/27 11:40:31;;;;;;;0.40;0.40;;;14.30;99.90;12.60;99812.00;;;;5011838;28;20200;-68
2022/09/27 11:43:56;;;;;;;0.40;0.40;;;12.70;99.90;13.00;99786.00;;;;5026652;28;20188;-68
2022/09/27 11:46:36;;;;;;;0.23;0.23;;;12.60;99.90;13.50;99791.00;;;;5021745;28;20223;-68
2022/09/27 11:49:48;;;;;;;0.20;0.20;;;12.80;99.90;13.40;99821.00;;;;5014969;28;20180;-70
2022/09/27 11:52:42;;;;;;;0.20;0.20;;;13.10;99.90;14.10;99840.00;;;;5031199;28;20686;-69
2022/09/27 11:55:48;;;;;;;0.30;0.30;;;13.70;99.90;14.10;99844.00;;;;5014818;28;20542;-69
2022/09/27 11:58:46;;;;;;;0.20;0.20;;;13.70;99.90;14.70;99860.00;;;;5016059;28;20206;-69
2022/09/27 12:01:45;;;;;;;0.40;0.40;;;14.10;99.90;15.60;99863.00;;;;5015906;28;20208;-69
2022/09/27 12:05:10;;;;;;;0.30;0.30;;;14.80;99.90;15.30;99851.00;;;;4997275;28;20205;-68
2022/09/27 12:07:57;;;;;;;2.47;1.00;;;14.90;99.90;15.50;99856.00;;;;5014815;28;20173;-68
2022/09/27 12:10:57;;;;;;;2.93;0.73;;;15.10;99.90;14.60;99843.00;;;;5015583;28;20173;-69
2022/09/27 12:13:58;;;;;;;0.20;0.20;;;14.80;99.90;15.00;99837.00;;;;5014534;28;20690;-68
2022/09/27 12:16:28;;;;;;;2.10;0.70;;;14.80;99.90;14.80;99827.00;;;;5012132;28;20385;-68
2022/09/27 12:19:26;;;;;;;0.60;0.60;;;14.60;99.90;15.10;99825.00;;;;5030584;28;20632;-68
2022/09/27 12:22:10;;;;;;;1.90;1.87;;;14.70;99.90;15.50;99839.00;;;;5010451;28;20534;-68
2022/09/27 12:24:58;;;;;;;0.87;0.83;;;15.00;99.90;15.20;99774.00;;;;5014627;28;20219;-68
2022/09/27 12:27:51;;;;;;;1.40;0.70;;;14.80;99.90;14.60;99823.00;;;;5014451;28;20254;-68
2022/09/27 12:31:10;;;;;;;0.50;0.50;;;14.40;99.90;14.70;99828.00;;;;5013968;28;20186;-68
2022/09/27 12:34:18;;;;;;;0.40;0.40;;;14.40;99.90;15.70;99848.00;;;;5009575;28;20187;-68
2022/09/27 12:37:13;;;;;;;0.50;0.50;;;14.70;99.90;15.10;99837.00;;;;4993858;28;20195;-68